createdAt,value
2022-11-28T00:00:00.196Z,6.5
2022-11-28T00:05:00.165Z,6.5
2022-11-28T00:10:00.180Z,6.5
2022-11-28T00:15:00.172Z,6.6
2022-11-28T00:20:00.196Z,6.6
2022-11-28T00:25:00.163Z,6.6
2022-11-28T00:30:00.180Z,6.6
2022-11-28T00:35:00.175Z,6.6
2022-11-28T00:40:00.162Z,6.7
2022-11-28T00:45:00.168Z,6.7
2022-11-28T00:50:00.168Z,6.7
2022-11-28T00:55:00.159Z,6.7
2022-11-28T01:00:00.214Z,6.7
2022-11-28T01:05:00.167Z,6.8
2022-11-28T01:10:00.167Z,6.7
2022-11-28T01:15:00.167Z,6.7
2022-11-28T01:20:00.211Z,6.7
2022-11-28T01:25:00.163Z,6.6
2022-11-28T01:30:00.194Z,6.6
2022-11-28T01:35:00.170Z,6.6
2022-11-28T01:40:00.160Z,6.6
2022-11-28T01:45:00.167Z,6.6
2022-11-28T01:50:00.168Z,6.6
2022-11-28T01:55:00.174Z,6.7
2022-11-28T02:00:00.186Z,6.7
2022-11-28T02:05:00.161Z,6.7
2022-11-28T02:10:00.165Z,6.7
2022-11-28T02:15:00.158Z,6.7
2022-11-28T02:20:00.203Z,6.7
2022-11-28T02:25:00.170Z,6.7
2022-11-28T02:30:00.203Z,6.8
2022-11-28T02:35:00.171Z,6.8
2022-11-28T02:40:00.165Z,6.8
2022-11-28T02:45:00.167Z,6.9
2022-11-28T02:50:00.176Z,6.9
2022-11-28T02:55:00.166Z,6.9
2022-11-28T03:00:00.179Z,7.0
2022-11-28T03:05:00.176Z,7.0
2022-11-28T03:10:00.177Z,7.1
2022-11-28T03:15:00.162Z,7.1
2022-11-28T03:20:00.177Z,7.2
2022-11-28T03:25:00.154Z,7.2
2022-11-28T03:30:00.172Z,7.2
2022-11-28T03:35:00.172Z,7.3
2022-11-28T03:40:00.180Z,7.3
2022-11-28T03:45:00.163Z,7.3
2022-11-28T03:50:00.174Z,7.3
2022-11-28T03:55:00.186Z,7.3
2022-11-28T04:00:00.219Z,7.3
2022-11-28T04:05:00.167Z,7.3
2022-11-28T04:10:00.187Z,7.4
2022-11-28T04:15:00.167Z,7.4
2022-11-28T04:20:00.200Z,7.5
2022-11-28T04:25:00.177Z,7.5
2022-11-28T04:30:00.191Z,7.5
2022-11-28T04:35:00.169Z,7.5
2022-11-28T04:40:00.185Z,7.5
2022-11-28T04:45:00.169Z,7.5
2022-11-28T04:50:00.179Z,7.5
2022-11-28T04:55:00.197Z,7.4
2022-11-28T05:00:00.221Z,7.4
2022-11-28T05:05:00.188Z,7.4
2022-11-28T05:10:00.175Z,7.4
2022-11-28T05:15:00.171Z,7.4
2022-11-28T05:20:00.181Z,7.4
2022-11-28T05:25:00.185Z,7.4
2022-11-28T05:30:00.207Z,7.5
2022-11-28T05:35:00.178Z,7.5
2022-11-28T05:40:00.179Z,7.5
2022-11-28T05:45:00.184Z,7.5
2022-11-28T05:50:00.181Z,7.4
2022-11-28T05:55:00.178Z,7.5
2022-11-28T06:00:00.235Z,7.5
2022-11-28T06:45:00.205Z,7.6
2022-11-28T06:50:00.278Z,7.6
2022-11-28T06:55:00.203Z,7.6
2022-11-28T07:00:00.240Z,7.6
2022-11-28T07:05:00.191Z,7.6
2022-11-28T07:10:00.177Z,7.6
2022-11-28T07:15:00.207Z,7.6
2022-11-28T07:20:00.180Z,7.6
2022-11-28T07:25:00.186Z,7.6
2022-11-28T07:30:00.188Z,7.6
2022-11-28T07:35:00.181Z,7.6
2022-11-28T07:40:00.207Z,7.7
2022-11-28T07:45:00.208Z,7.7
2022-11-28T07:50:00.195Z,7.7
2022-11-28T07:55:00.173Z,7.7
2022-11-28T08:00:00.197Z,7.7
2022-11-28T08:05:01.510Z,7.7
2022-11-28T08:10:00.173Z,7.7
2022-11-28T08:15:00.193Z,7.7
2022-11-28T08:20:00.216Z,7.7
2022-11-28T08:25:00.204Z,7.7
2022-11-28T08:30:00.209Z,7.7
2022-11-28T08:35:00.201Z,7.7
2022-11-28T08:40:00.186Z,7.7
2022-11-28T08:45:00.193Z,7.7
2022-11-28T08:50:00.188Z,7.8
2022-11-28T08:55:00.179Z,7.8
2022-11-28T09:00:00.220Z,7.8
2022-11-28T09:05:00.187Z,7.8
2022-11-28T09:10:00.213Z,7.8
2022-11-28T09:15:00.186Z,7.9
2022-11-28T09:20:00.186Z,7.9
2022-11-28T09:25:00.193Z,7.9
2022-11-28T09:30:00.185Z,7.9
2022-11-28T09:35:00.193Z,7.9
2022-11-28T09:40:12.992Z,7.9
2022-11-28T09:45:00.160Z,7.9
2022-11-28T09:50:00.172Z,8.0
2022-11-28T09:55:00.178Z,8.0
2022-11-28T10:00:00.270Z,8.0
2022-11-28T10:05:00.282Z,8.1
2022-11-28T10:10:00.230Z,8.1
2022-11-28T10:15:00.176Z,8.1
2022-11-28T10:20:00.473Z,8.2
2022-11-28T10:25:00.195Z,8.2
2022-11-28T10:30:00.190Z,8.2
2022-11-28T10:35:00.178Z,8.2
2022-11-28T10:40:00.182Z,8.3
2022-11-28T10:45:00.178Z,8.3
2022-11-28T10:50:00.185Z,8.3
2022-11-28T10:55:00.196Z,8.4
2022-11-28T11:00:01.357Z,8.3
2022-11-28T11:05:00.350Z,8.4
2022-11-28T11:10:00.195Z,8.4
2022-11-28T11:15:00.215Z,8.5
2022-11-28T11:20:00.216Z,8.5
2022-11-28T11:25:00.187Z,8.5
2022-11-28T11:30:00.203Z,8.6
2022-11-28T11:35:00.188Z,8.6
2022-11-28T11:40:00.240Z,8.5
2022-11-28T11:45:00.178Z,8.5
2022-11-28T11:50:00.178Z,8.5
2022-11-28T11:55:00.171Z,8.6
2022-11-28T12:00:00.208Z,8.5
2022-11-28T12:05:00.358Z,8.6
2022-11-28T12:15:00.183Z,8.5
2022-11-28T12:20:00.183Z,8.5
2022-11-28T12:25:00.172Z,8.6
2022-11-28T12:30:00.200Z,8.5
2022-11-28T12:35:00.210Z,8.5
2022-11-28T12:40:00.188Z,8.5
2022-11-28T12:45:00.205Z,8.5
2022-11-28T12:50:00.219Z,8.6
2022-11-28T12:55:00.186Z,8.6
2022-11-28T13:00:06.763Z,8.6
2022-11-28T13:05:00.190Z,8.6
2022-11-28T13:10:00.193Z,8.7
2022-11-28T13:15:00.188Z,8.6
2022-11-28T13:20:00.193Z,8.7
2022-11-28T13:25:00.234Z,8.7
2022-11-28T13:30:00.185Z,8.7
2022-11-28T13:35:00.238Z,8.7
2022-11-28T13:40:00.208Z,8.7
2022-11-28T13:45:00.184Z,8.8
2022-11-28T13:50:00.214Z,8.8
2022-11-28T13:55:00.197Z,8.9
2022-11-28T14:00:00.239Z,8.9
2022-11-28T14:05:00.185Z,8.8
2022-11-28T14:10:01.354Z,8.8
2022-11-28T14:15:00.194Z,8.8
2022-11-28T14:20:00.247Z,8.8
2022-11-28T14:25:00.204Z,8.9
2022-11-28T14:30:00.208Z,8.9
2022-11-28T14:35:00.190Z,8.9
2022-11-28T14:40:00.191Z,8.8
2022-11-28T14:45:06.490Z,8.8
2022-11-28T14:50:00.198Z,8.8
2022-11-28T14:55:00.178Z,8.8
2022-11-28T15:00:00.254Z,8.8
2022-11-28T15:05:00.177Z,8.8
2022-11-28T15:10:05.699Z,8.8
2022-11-28T15:15:00.202Z,8.8
2022-11-28T15:20:00.205Z,8.8
2022-11-28T15:25:00.193Z,8.8
2022-11-28T15:30:00.218Z,8.8
2022-11-28T15:35:00.188Z,8.9
2022-11-28T15:40:00.199Z,8.9
2022-11-28T15:45:00.273Z,8.9
2022-11-28T15:50:00.195Z,8.9
2022-11-28T15:55:00.204Z,8.9
2022-11-28T16:00:00.297Z,8.9
2022-11-28T16:05:00.173Z,8.9
2022-11-28T16:10:00.297Z,8.9
2022-11-28T16:15:00.215Z,8.9
2022-11-28T16:20:00.312Z,8.9
2022-11-28T16:25:00.197Z,8.9
2022-11-28T16:30:00.203Z,8.9
2022-11-28T16:35:00.247Z,8.9
2022-11-28T16:40:00.199Z,9.0
2022-11-28T16:45:00.180Z,8.9
2022-11-28T16:50:00.190Z,9.0
2022-11-28T16:55:00.182Z,9.0
2022-11-28T17:00:00.204Z,8.9
2022-11-28T17:05:00.185Z,9.0
2022-11-28T17:10:00.182Z,9.0
2022-11-28T17:15:00.183Z,9.0
2022-11-28T17:20:00.182Z,9.0
2022-11-28T17:25:00.188Z,9.0
2022-11-28T17:30:00.185Z,9.0
2022-11-28T17:35:00.186Z,9.0
2022-11-28T17:40:00.202Z,9.0
2022-11-28T17:45:00.181Z,9.0
2022-11-28T17:50:00.195Z,9.0
2022-11-28T17:55:06.189Z,9.0
2022-11-28T18:00:00.203Z,9.0
2022-11-28T18:05:00.191Z,9.0
2022-11-28T18:10:00.326Z,9.0
2022-11-28T18:15:00.193Z,9.0
2022-11-28T18:20:00.184Z,9.0
2022-11-28T18:25:00.182Z,9.0
2022-11-28T18:30:00.196Z,9.0
2022-11-28T18:35:01.100Z,9.0
2022-11-28T18:40:00.215Z,9.0
2022-11-28T18:45:00.205Z,9.0
2022-11-28T18:50:00.182Z,9.0
2022-11-28T18:55:00.186Z,9.0
2022-11-28T19:00:00.634Z,8.9
2022-11-28T19:05:00.184Z,8.9
2022-11-28T19:10:00.224Z,8.8
2022-11-28T19:15:02.337Z,8.7
2022-11-28T19:20:00.180Z,8.6
2022-11-28T19:25:00.193Z,8.5
2022-11-28T19:30:00.206Z,8.5
2022-11-28T19:35:00.192Z,8.4
2022-11-28T19:40:02.849Z,8.4
2022-11-28T19:45:00.235Z,8.2
2022-11-28T19:50:00.216Z,7.9
2022-11-28T19:55:00.196Z,7.8
2022-11-28T20:00:00.248Z,7.6
2022-11-28T20:05:00.181Z,7.5
2022-11-28T20:10:00.179Z,7.4
2022-11-28T20:15:00.177Z,7.6
2022-11-28T20:20:00.178Z,7.5
2022-11-28T20:25:00.196Z,7.5
2022-11-28T20:30:00.185Z,7.6
2022-11-28T20:35:00.172Z,8.2
2022-11-28T20:40:00.187Z,8.3
2022-11-28T20:45:00.169Z,8.3
2022-11-28T20:50:00.175Z,8.3
2022-11-28T20:55:00.173Z,8.3
2022-11-28T21:00:00.352Z,8.3
2022-11-28T21:05:00.177Z,8.3
2022-11-28T21:10:00.188Z,8.2
2022-11-28T21:15:00.184Z,8.2
2022-11-28T21:20:00.185Z,8.2
2022-11-28T21:25:00.177Z,8.2
2022-11-28T21:30:00.193Z,8.2
2022-11-28T21:35:04.076Z,8.2
2022-11-28T21:40:00.176Z,8.2
2022-11-28T21:45:00.209Z,8.1
2022-11-28T21:50:00.178Z,8.1
2022-11-28T21:55:00.162Z,8.1
2022-11-28T22:00:00.207Z,8.1
2022-11-28T22:05:00.162Z,8.0
2022-11-28T22:10:00.159Z,8.0
2022-11-28T22:15:00.169Z,7.9
2022-11-28T22:20:00.163Z,7.9
2022-11-28T22:25:00.197Z,7.9
2022-11-28T22:30:00.180Z,7.9
2022-11-28T22:35:00.217Z,7.9
2022-11-28T22:40:00.197Z,7.8
2022-11-28T22:45:00.182Z,7.8
2022-11-28T22:50:00.163Z,7.8
2022-11-28T22:55:00.164Z,7.9
2022-11-28T23:00:00.219Z,7.9
2022-11-28T23:05:00.177Z,7.8
2022-11-28T23:10:00.184Z,7.8
2022-11-28T23:15:00.162Z,7.8
2022-11-28T23:20:00.172Z,7.8
2022-11-28T23:25:00.170Z,7.8
2022-11-28T23:30:00.199Z,7.7
2022-11-28T23:35:00.182Z,7.7
2022-11-28T23:40:00.209Z,7.7
2022-11-28T23:45:00.162Z,7.7
2022-11-28T23:50:00.172Z,7.7
2022-11-28T23:55:00.168Z,7.7
